Time;durP1;ratioP1;P1;durP2;ratioP2;P2;SDS_P1;SDS_P2;PMS_P1;PMS_P2;Temp;Humidity;BMP_temperature;BMP_pressure;BME280_temperature;BME280_humidity;BME280_pressure;Samples;Min_cycle;Max_cycle;Signal;HPM_P1;HPM_P2
2023/03/08 00:01:52;;;;;;;6.22;4.38;;;21.90;65.90;;;20.81;40.03;96889.44;5046097;28;20075;-66
2023/03/08 00:04:18;;;;;;;4.90;2.97;;;21.90;65.80;;;20.81;40.11;96893.00;5047529;28;20033;-66
2023/03/08 00:06:44;;;;;;;7.30;4.05;;;21.90;65.80;;;20.85;39.94;96900.50;5045204;28;20495;-66
2023/03/08 00:09:10;;;;;;;7.30;3.08;;;21.90;65.80;;;20.88;39.92;96902.47;5043486;28;20051;-66
2023/03/08 00:11:36;;;;;;;4.82;3.63;;;21.90;65.80;;;20.84;40.13;96898.88;5047454;28;20045;-66
2023/03/08 00:14:02;;;;;;;8.13;3.47;;;21.90;65.80;;;20.80;39.77;96904.41;5047405;28;20048;-66
2023/03/08 00:16:29;;;;;;;5.05;2.70;;;21.80;65.70;;;20.80;39.93;96905.19;5046811;28;20048;-66
2023/03/08 00:18:55;;;;;;;5.47;3.35;;;21.90;65.60;;;20.77;39.86;96902.41;5041979;28;20045;-66
2023/03/08 00:21:21;;;;;;;4.63;3.38;;;21.90;65.60;;;20.80;39.73;96907.16;5046734;28;20049;-66
2023/03/08 00:23:47;;;;;;;7.05;3.70;;;21.90;65.60;;;20.79;39.72;96911.88;5047349;28;20474;-66
2023/03/08 00:26:13;;;;;;;4.38;3.80;;;21.90;65.50;;;20.79;39.80;96909.13;5041832;28;20053;-66
2023/03/08 00:28:39;;;;;;;5.95;4.25;;;21.90;65.50;;;20.79;39.76;96908.34;5046174;28;20374;-66
2023/03/08 00:31:08;;;;;;;8.38;4.47;;;21.90;65.40;;;20.82;39.71;96899.28;5046851;28;20052;-66
2023/03/08 00:33:34;;;;;;;5.82;3.92;;;21.90;65.50;;;20.76;39.80;96898.88;5047528;28;20648;-66
2023/03/08 00:36:14;;;;;;;4.47;3.58;;;21.90;65.60;;;20.74;39.66;96898.47;5043093;28;20086;-66
2023/03/08 00:38:40;;;;;;;6.50;4.10;;;21.90;65.50;;;20.73;39.68;96891.38;5047077;28;20122;-66
2023/03/08 00:41:06;;;;;;;6.20;4.03;;;21.90;65.50;;;20.78;39.68;96888.25;5048843;28;20059;-66
2023/03/08 00:43:33;;;;;;;5.72;3.40;;;21.90;65.40;;;20.77;39.91;96886.69;5049321;28;20064;-66
2023/03/08 00:45:59;;;;;;;8.00;4.60;;;21.90;65.30;;;20.75;39.75;96891.00;5046549;28;20048;-66
2023/03/08 00:48:25;;;;;;;6.20;3.95;;;21.90;65.30;;;20.74;39.93;96890.22;5049029;28;20060;-66
2023/03/08 00:50:51;;;;;;;6.53;3.80;;;21.90;65.30;;;20.79;39.67;96897.31;5048461;28;20055;-66
2023/03/08 00:53:17;;;;;;;6.05;4.28;;;21.90;65.30;;;20.77;39.86;96900.44;5046222;28;20045;-66
2023/03/08 00:55:57;;;;;;;5.03;4.00;;;21.90;65.20;;;20.73;39.70;96890.59;5048690;28;20106;-66
2023/03/08 00:58:26;;;;;;;5.22;3.83;;;21.90;65.20;;;20.74;39.83;96890.22;5049642;28;20132;-66
2023/03/08 01:00:52;;;;;;;7.32;4.47;;;21.90;65.20;;;20.73;39.72;96890.59;5046420;28;20049;-66
2023/03/08 01:03:19;;;;;;;8.98;4.05;;;21.80;65.00;;;20.71;39.37;96890.19;5048411;28;20376;-66
2023/03/08 01:05:47;;;;;;;8.20;4.57;;;21.90;65.20;;;20.68;39.59;96888.19;5047223;28;20154;-66
2023/03/08 01:08:13;;;;;;;6.03;3.88;;;21.90;65.10;;;20.71;39.45;96887.41;5048945;28;20049;-66
2023/03/08 01:10:45;;;;;;;4.32;3.47;;;21.90;65.10;;;20.67;39.69;96889.38;5045303;28;20037;-66
2023/03/08 01:13:11;;;;;;;9.17;4.13;;;21.90;65.10;;;20.68;39.69;96893.72;5026380;28;20053;-66
2023/03/08 01:15:37;;;;;;;7.38;4.35;;;21.80;65.00;;;20.71;39.63;96891.00;5048501;28;20116;-66
2023/03/08 01:18:04;;;;;;;6.72;3.67;;;21.90;65.00;;;20.73;39.73;96883.09;5045319;28;20466;-66
2023/03/08 01:20:30;;;;;;;7.88;4.65;;;21.80;65.00;;;20.74;39.28;96890.22;5047088;28;20037;-66
2023/03/08 01:22:56;;;;;;;7.72;4.22;;;21.80;65.00;;;20.75;39.36;96891.00;5048258;28;20262;-66
2023/03/08 01:25:23;;;;;;;4.93;3.78;;;21.80;65.00;;;20.73;39.49;96891.38;5046913;28;20056;-66
2023/03/08 01:27:49;;;;;;;8.25;4.55;;;21.80;65.00;;;20.72;39.27;96900.03;5046110;28;20131;-66
2023/03/08 01:30:16;;;;;;;6.60;4.22;;;21.80;65.00;;;20.69;39.53;96895.31;5044115;28;20048;-66
2023/03/08 01:32:41;;;;;;;6.07;4.60;;;21.80;65.00;;;20.66;39.64;96896.06;5045722;28;20403;-66
2023/03/08 01:35:08;;;;;;;6.97;4.50;;;21.80;65.00;;;20.69;39.51;96889.81;5047553;28;20040;-66
2023/03/08 01:37:34;;;;;;;6.57;4.50;;;21.80;65.00;;;20.76;39.56;96900.81;5045349;28;20200;-66
2023/03/08 01:40:00;;;;;;;7.95;4.30;;;21.80;64.80;;;20.73;39.36;96894.13;5047144;28;20438;-66
2023/03/08 01:42:27;;;;;;;7.20;3.67;;;21.80;65.00;;;20.66;39.65;96894.13;5047979;28;20131;-66
2023/03/08 01:45:02;;;;;;;6.28;4.53;;;21.80;65.00;;;20.74;39.50;96892.19;5046398;28;20044;-67
2023/03/08 01:47:30;;;;;;;7.35;4.18;;;21.80;65.10;;;20.85;39.43;96875.69;5045505;28;20084;-66
2023/03/08 01:50:04;;;;;;;4.72;4.32;;;21.80;65.20;;;20.88;38.82;96881.19;5044806;28;20041;-66
2023/03/08 01:52:34;;;;;;;8.98;4.15;;;21.90;65.00;;;20.84;39.19;96883.16;5045565;28;20055;-66
2023/03/08 01:55:06;;;;;;;5.50;3.97;;;21.90;65.00;;;20.82;39.38;96874.50;5029803;28;20048;-66
2023/03/08 01:57:41;;;;;;;5.57;3.88;;;21.80;64.80;;;20.86;39.16;96880.00;5021940;28;20460;-66
2023/03/08 02:00:17;;;;;;;5.78;4.35;;;21.80;64.80;;;20.80;39.32;96877.63;5030148;28;20041;-66
2023/03/08 02:02:53;;;;;;;8.10;5.28;;;21.80;64.70;;;20.78;39.08;96874.47;5046846;28;20324;-66
2023/03/08 02:05:20;;;;;;;7.90;4.82;;;21.80;64.70;;;20.81;39.30;96872.91;5042829;28;20048;-66
2023/03/08 02:07:46;;;;;;;8.85;4.75;;;21.90;64.80;;;20.78;39.18;96884.69;5044046;28;20408;-66
2023/03/08 02:10:12;;;;;;;7.95;4.45;;;21.80;64.80;;;20.77;39.26;96883.13;5047585;28;20450;-67
2023/03/08 02:12:38;;;;;;;6.80;4.43;;;21.80;64.70;;;20.79;39.00;96881.56;5029215;28;20123;-66
2023/03/08 02:15:07;;;;;;;9.75;5.25;;;21.80;64.80;;;20.83;39.16;96873.31;5023613;28;20045;-66
2023/03/08 02:17:36;;;;;;;5.50;4.10;;;21.80;64.80;;;20.80;39.37;96888.66;5029333;28;20124;-66
2023/03/08 02:20:24;;;;;;;6.03;3.72;;;21.80;64.80;;;20.76;39.29;96865.81;5029696;28;20033;-66
2023/03/08 02:22:52;;;;;;;9.60;4.75;;;21.80;64.80;;;20.76;39.36;96876.03;5046158;28;20124;-66
2023/03/08 02:25:22;;;;;;;6.93;4.40;;;21.80;64.80;;;20.81;39.27;96878.41;5045770;28;20057;-66
2023/03/08 02:27:50;;;;;;;8.80;4.38;;;21.80;64.80;;;20.78;39.39;96879.97;5046787;28;20084;-66
2023/03/08 02:30:25;;;;;;;7.00;4.30;;;21.80;64.90;;;20.77;39.39;96885.91;5045801;28;20125;-66
2023/03/08 02:32:50;;;;;;;5.03;3.75;;;21.80;64.80;;;20.75;39.50;96875.25;5044119;28;20080;-66
2023/03/08 02:35:17;;;;;;;4.03;3.10;;;21.80;65.70;;;20.77;39.33;96878.41;5045513;28;20127;-66
2023/03/08 02:37:43;;;;;;;9.18;5.55;;;21.80;64.90;;;20.72;39.36;96878.00;5045557;28;20120;-66
2023/03/08 02:40:10;;;;;;;5.30;3.60;;;21.80;64.80;;;20.72;39.54;96865.00;5045600;28;20473;-66
2023/03/08 02:42:36;;;;;;;8.80;3.75;;;21.80;64.80;;;20.77;39.35;96869.34;5045908;28;20118;-66
2023/03/08 02:45:03;;;;;;;6.53;3.97;;;21.80;64.80;;;20.74;39.38;96872.91;5047427;28;20037;-66
2023/03/08 02:47:29;;;;;;;5.28;3.90;;;21.80;64.80;;;20.70;39.37;96872.09;5044876;28;20049;-66
2023/03/08 02:49:55;;;;;;;5.45;3.55;;;21.80;64.90;;;20.72;39.54;96880.75;5046165;28;20049;-66
2023/03/08 02:52:21;;;;;;;4.47;3.63;;;21.80;65.00;;;20.69;39.43;96882.31;5043223;28;20505;-66
2023/03/08 02:54:47;;;;;;;9.98;4.32;;;21.80;64.80;;;20.71;39.36;96888.22;5044288;28;20040;-66
2023/03/08 02:57:13;;;;;;;7.97;4.00;;;21.80;64.90;;;20.71;39.29;96887.41;5047129;28;20055;-66
2023/03/08 02:59:39;;;;;;;6.30;4.43;;;21.80;64.80;;;20.70;39.39;96892.16;5047669;28;20052;-66
2023/03/08 03:02:05;;;;;;;5.75;3.40;;;21.80;65.00;;;20.75;39.16;96891.00;5049897;28;20380;-66
2023/03/08 03:04:32;;;;;;;8.52;5.43;;;21.80;64.80;;;20.73;39.24;96899.63;5051014;28;20041;-66
2023/03/08 03:06:59;;;;;;;6.38;3.83;;;21.80;64.80;;;20.78;39.11;96895.72;5059077;28;20417;-66
2023/03/08 03:09:25;;;;;;;6.57;3.83;;;21.80;64.80;;;20.79;39.38;96894.56;5048598;28;20205;-66
2023/03/08 03:11:51;;;;;;;6.05;3.60;;;21.80;65.60;;;20.86;39.10;96902.84;5050284;28;20045;-66
2023/03/08 03:14:17;;;;;;;8.15;4.45;;;21.80;64.70;;;20.88;38.91;96903.25;5051105;28;20041;-66
2023/03/08 03:16:43;;;;;;;12.95;3.95;;;21.80;64.70;;;20.88;38.89;96905.22;5049340;28;20041;-66
2023/03/08 03:19:09;;;;;;;5.10;4.05;;;21.80;64.70;;;20.89;38.89;96907.59;5047796;28;20041;-66
2023/03/08 03:21:37;;;;;;;4.53;3.58;;;21.80;64.70;;;20.92;39.05;96912.31;5050017;28;20068;-66
2023/03/08 03:24:03;;;;;;;6.97;3.40;;;21.90;64.70;;;20.96;39.05;96912.31;5048944;28;20134;-66
2023/03/08 03:26:29;;;;;;;4.55;3.35;;;21.90;64.60;;;21.02;38.95;96917.09;5048621;28;20496;-66
2023/03/08 03:28:56;;;;;;;5.40;4.15;;;21.90;64.80;;;21.07;38.71;96920.66;5048227;28;20361;-67
2023/03/08 03:31:22;;;;;;;5.18;4.18;;;22.00;64.70;;;21.11;38.83;96940.75;5050475;28;20484;-67
2023/03/08 03:33:49;;;;;;;6.18;3.30;;;22.00;64.70;;;21.10;38.48;96936.41;5050449;28;20047;-66
2023/03/08 03:36:18;;;;;;;6.97;3.40;;;22.10;64.80;;;21.12;38.69;96929.34;5046657;28;20048;-66
2023/03/08 03:38:45;;;;;;;5.07;3.13;;;22.10;64.50;;;21.13;38.64;96941.16;5050098;28;20072;-66
2023/03/08 03:41:16;;;;;;;4.70;3.45;;;22.20;64.50;;;21.16;38.48;96935.63;5050365;28;20476;-66
2023/03/08 03:43:42;;;;;;;4.97;3.88;;;22.20;64.40;;;21.18;38.17;96940.78;5050312;28;20388;-66
2023/03/08 03:46:11;;;;;;;3.35;2.90;;;22.30;64.30;;;21.24;38.11;96948.28;5046657;28;20056;-66
2023/03/08 03:48:37;;;;;;;6.07;3.92;;;22.30;64.00;;;21.26;38.13;96953.41;5049236;28;20045;-66
2023/03/08 03:51:16;;;;;;;3.13;2.83;;;22.40;64.00;;;21.30;38.24;96964.44;5049717;28;20033;-66
2023/03/08 03:53:42;;;;;;;5.97;3.85;;;22.40;63.70;;;21.28;37.92;96972.31;5048331;28;20073;-66
2023/03/08 03:56:17;;;;;;;6.05;3.13;;;22.50;63.70;;;21.29;37.90;96966.41;5046508;28;20071;-66
2023/03/08 03:58:43;;;;;;;5.45;3.70;;;22.50;63.40;;;21.34;37.91;96973.50;5048366;28;20098;-66
2023/03/08 04:01:19;;;;;;;4.32;3.17;;;22.60;63.30;;;21.38;37.91;96982.59;5049994;28;20041;-66
2023/03/08 04:03:46;;;;;;;5.22;3.20;;;22.60;63.30;;;21.34;37.84;96979.81;5042498;28;20048;-66
2023/03/08 04:06:15;;;;;;;5.55;3.83;;;22.70;63.40;;;21.36;37.87;96985.72;5049883;28;20045;-67
2023/03/08 04:08:41;;;;;;;5.70;3.40;;;22.70;63.40;;;21.40;37.86;96991.31;5049541;28;20045;-66
2023/03/08 04:11:09;;;;;;;7.65;3.88;;;22.80;63.30;;;21.41;37.79;96990.91;5048688;28;20047;-66
2023/03/08 04:13:35;;;;;;;6.22;3.35;;;22.90;63.10;;;21.46;37.75;96998.78;5046208;28;20041;-66
2023/03/08 04:16:16;;;;;;;3.95;3.05;;;22.90;63.00;;;21.52;37.60;96992.91;5042783;28;20404;-66
2023/03/08 04:18:42;;;;;;;5.63;3.22;;;23.00;62.90;;;21.51;37.54;96999.59;5045070;28;20060;-66
2023/03/08 04:21:08;;;;;;;4.90;3.03;;;23.00;62.90;;;21.52;37.58;97009.44;5044742;28;20374;-66
2023/03/08 04:23:35;;;;;;;4.03;3.50;;;23.00;62.80;;;21.55;37.44;97009.47;5047547;28;20052;-66
2023/03/08 04:26:01;;;;;;;3.58;3.22;;;23.10;62.70;;;21.60;37.40;97005.53;5050210;28;20124;-66
2023/03/08 04:28:28;;;;;;;3.28;2.88;;;23.20;62.60;;;21.62;37.13;97009.47;5050532;28;20105;-66
2023/03/08 04:30:53;;;;;;;5.20;3.10;;;23.20;62.60;;;21.65;37.01;97014.25;5044059;28;20042;-66
2023/03/08 04:33:20;;;;;;;6.80;3.28;;;23.20;63.10;;;21.66;37.22;97020.53;5048737;28;20091;-66
2023/03/08 04:35:46;;;;;;;4.60;3.08;;;23.30;62.40;;;21.68;37.04;97018.97;5050362;28;20041;-67
2023/03/08 04:38:12;;;;;;;2.97;2.67;;;23.30;62.30;;;21.70;37.06;97020.53;5050188;28;20412;-67
2023/03/08 04:43:24;;;;;;;5.70;2.88;;;23.40;62.20;;;21.77;36.71;97023.31;5050521;28;20059;-67
2023/03/08 04:45:50;;;;;;;6.07;4.10;;;23.40;62.10;;;21.80;36.89;97031.59;5050683;28;20103;-67
2023/03/08 04:48:16;;;;;;;3.63;2.80;;;23.40;61.90;;;21.83;36.88;97030.84;5048994;28;20177;-66
2023/03/08 04:50:42;;;;;;;3.72;3.00;;;23.50;62.00;;;21.87;36.60;97036.34;5049939;28;20139;-66
2023/03/08 04:53:08;;;;;;;4.13;3.03;;;23.50;61.90;;;21.83;36.70;97030.84;5048784;28;20033;-67
2023/03/08 04:55:36;;;;;;;3.00;2.47;;;23.50;61.80;;;21.85;36.79;97035.94;5050106;28;20567;-67
2023/03/08 04:58:02;;;;;;;5.03;2.88;;;23.60;61.70;;;21.85;36.76;97033.19;5046587;28;20048;-66
2023/03/08 05:00:28;;;;;;;3.63;3.17;;;23.60;61.70;;;21.84;36.92;97035.16;5047890;28;20495;-67
2023/03/08 05:02:54;;;;;;;5.00;3.83;;;23.60;62.40;;;21.92;36.78;97032.41;5051008;28;20299;-67
2023/03/08 05:05:20;;;;;;;6.97;3.17;;;23.70;61.60;;;21.95;36.71;97032.41;5051021;28;20480;-66
2023/03/08 05:07:46;;;;;;;5.07;3.55;;;23.70;61.30;;;21.97;36.58;97021.78;5049704;28;20625;-67
2023/03/08 05:10:12;;;;;;;4.18;3.40;;;23.70;61.50;;;21.96;36.52;97019.44;5048480;28;20047;-67
2023/03/08 05:12:38;;;;;;;3.45;3.08;;;23.80;61.50;;;21.96;36.59;97022.19;5050488;28;20029;-66
2023/03/08 05:15:06;;;;;;;8.60;3.38;;;23.80;61.40;;;21.98;36.45;97028.09;5050497;28;20052;-66
2023/03/08 05:17:33;;;;;;;3.28;2.35;;;23.90;61.20;;;22.02;36.54;97046.22;5047443;28;20042;-67
2023/03/08 05:19:58;;;;;;;3.28;2.97;;;23.90;61.30;;;22.02;36.52;97043.47;5050752;28;20051;-67
2023/03/08 05:22:25;;;;;;;4.50;3.15;;;23.90;61.20;;;22.06;36.59;97046.25;5050544;28;20060;-66
2023/03/08 05:24:51;;;;;;;3.78;3.28;;;23.90;61.00;;;22.08;36.33;97041.09;5048788;28;20053;-66
2023/03/08 05:27:17;;;;;;;3.72;2.60;;;24.00;61.10;;;22.01;36.60;97041.91;5044895;28;20057;-66
2023/03/08 05:29:43;;;;;;;3.42;2.65;;;24.00;60.90;;;22.10;36.29;97050.59;5046553;28;20049;-67
2023/03/08 05:32:11;;;;;;;3.20;2.75;;;24.10;61.00;;;22.09;36.45;97054.53;5048344;28;20036;-67
2023/03/08 05:34:36;;;;;;;4.80;2.50;;;24.10;60.90;;;22.07;36.55;97058.88;5048236;28;20051;-66
2023/03/08 05:37:03;;;;;;;2.50;2.30;;;24.10;60.60;;;22.13;36.23;97056.50;5041157;28;20044;-67
2023/03/08 05:39:29;;;;;;;3.83;2.50;;;24.10;60.60;;;22.19;36.07;97066.00;5045649;28;20090;-67
2023/03/08 05:41:55;;;;;;;4.30;2.97;;;24.10;60.50;;;22.16;36.15;97055.72;5047773;28;20063;-67
2023/03/08 05:44:21;;;;;;;3.20;2.50;;;24.10;60.80;;;22.18;36.25;97062.44;5044395;28;20048;-67
2023/03/08 05:46:51;;;;;;;4.82;2.78;;;24.10;60.80;;;22.21;36.03;97072.75;5046233;28;20047;-66
2023/03/08 05:49:17;;;;;;;4.65;3.15;;;24.10;60.40;;;22.19;36.08;97069.56;5046938;28;20407;-67
2023/03/08 05:51:43;;;;;;;4.30;3.35;;;24.10;60.50;;;22.19;36.09;97083.38;5047530;28;20041;-67
2023/03/08 05:54:09;;;;;;;2.78;2.58;;;24.10;60.40;;;22.20;36.07;97082.19;5043173;28;20037;-67
2023/03/08 05:56:38;;;;;;;3.28;2.72;;;24.10;60.50;;;22.19;36.34;97082.56;5044602;28;20046;-67
2023/03/08 05:59:07;;;;;;;4.07;2.80;;;24.10;60.40;;;22.22;35.94;97087.34;5026183;28;20068;-67
2023/03/08 06:01:33;;;;;;;5.15;2.55;;;24.10;60.40;;;22.18;35.98;97095.56;5042919;28;20091;-67
2023/03/08 06:03:59;;;;;;;4.88;3.28;;;24.10;60.40;;;22.20;36.22;97090.47;5042901;28;20037;-67
2023/03/08 06:06:26;;;;;;;3.22;2.80;;;24.10;60.40;;;22.19;36.10;97093.63;5044092;28;20049;-67
2023/03/08 06:08:52;;;;;;;3.08;2.30;;;24.10;60.50;;;22.21;36.10;97097.59;5041837;28;20068;-67
2023/03/08 06:11:19;;;;;;;2.83;2.58;;;24.10;60.40;;;22.21;35.99;97092.06;5043143;28;20044;-66
2023/03/08 06:13:45;;;;;;;4.47;2.15;;;24.10;60.50;;;22.24;35.99;97094.03;5041520;28;20793;-67
2023/03/08 06:16:11;;;;;;;2.97;2.58;;;24.10;60.40;;;22.24;35.94;97099.56;5043182;28;20052;-67
2023/03/08 06:18:38;;;;;;;2.88;2.13;;;24.00;60.30;;;22.18;36.00;97109.38;5044055;28;20484;-67
2023/03/08 06:21:07;;;;;;;3.30;2.85;;;24.00;60.20;;;22.23;35.85;97103.50;5046064;28;20649;-67
2023/03/08 06:23:34;;;;;;;6.10;2.65;;;24.00;60.40;;;22.23;35.85;97102.72;5046178;28;20802;-66
2023/03/08 06:26:00;;;;;;;3.80;2.53;;;24.00;60.20;;;22.25;35.82;97114.94;5043483;28;20063;-67
2023/03/08 06:28:27;;;;;;;2.83;2.55;;;24.00;60.40;;;22.27;35.77;97120.88;5046906;28;20053;-66
2023/03/08 06:30:53;;;;;;;3.53;2.53;;;24.00;60.30;;;22.26;36.05;97119.31;5043871;28;20041;-66
2023/03/08 06:33:22;;;;;;;3.78;2.33;;;24.00;60.30;;;22.28;35.81;97116.91;5044878;28;20065;-66
2023/03/08 06:35:57;;;;;;;4.63;2.45;;;23.90;60.30;;;22.35;35.72;97127.19;5043466;28;20041;-67
2023/03/08 06:38:23;;;;;;;2.25;2.08;;;24.00;60.40;;;22.40;35.53;97128.78;5044017;28;20181;-67
2023/03/08 06:40:49;;;;;;;5.30;2.78;;;23.90;60.30;;;22.35;35.58;97143.78;5046103;28;20045;-66
2023/03/08 06:43:18;;;;;;;4.88;2.95;;;23.90;60.10;;;22.49;35.49;97151.28;5045868;28;20114;-67
2023/03/08 06:45:44;;;;;;;5.15;2.58;;;24.00;60.30;;;22.46;35.54;97154.84;5044600;28;20056;-66
2023/03/08 06:48:10;;;;;;;4.68;2.67;;;24.00;60.20;;;22.42;35.62;97162.34;5044997;28;20045;-67
2023/03/08 06:50:36;;;;;;;4.68;2.45;;;24.00;60.30;;;22.41;35.72;97164.28;5047208;28;20501;-67
2023/03/08 06:53:02;;;;;;;3.83;2.28;;;23.90;60.20;;;22.43;35.65;97169.44;5047021;28;20048;-66
2023/03/08 06:55:28;;;;;;;3.17;2.38;;;23.90;60.30;;;22.42;35.40;97165.88;5044529;28;20050;-67
2023/03/08 06:57:54;;;;;;;3.35;2.35;;;23.90;60.30;;;22.45;35.54;97175.38;5047185;28;20045;-66
2023/03/08 07:00:21;;;;;;;2.47;2.15;;;23.90;60.20;;;22.46;35.66;97182.47;5046366;28;20197;-66
2023/03/08 07:02:48;;;;;;;2.67;2.45;;;23.90;60.40;;;22.45;35.69;97175.38;5043847;28;20053;-67
2023/03/08 07:05:15;;;;;;;4.13;2.30;;;23.90;60.40;;;22.42;35.56;97176.16;5039943;28;20460;-66
2023/03/08 07:07:43;;;;;;;5.72;2.63;;;23.90;60.40;;;22.43;35.52;97175.75;5044006;28;20404;-67
2023/03/08 07:10:15;;;;;;;;;;;23.90;60.50;;;22.43;35.73;97181.28;5048034;28;20048;-68
2023/03/08 07:12:45;;;;;;;4.07;2.00;;;23.90;60.50;;;22.38;35.71;97178.09;5045969;28;19925;-67
2023/03/08 07:15:13;;;;;;;18.00;1.92;;;23.90;60.50;;;22.36;35.74;97183.22;5046596;28;20041;-66
2023/03/08 07:17:41;;;;;;;2.78;2.58;;;23.90;60.30;;;22.38;35.61;97187.19;5046164;28;20438;-67
2023/03/08 07:20:09;;;;;;;3.47;2.42;;;23.80;60.30;;;22.37;35.54;97185.59;5041894;28;20059;-67
2023/03/08 07:22:35;;;;;;;3.25;2.58;;;23.90;60.50;;;22.30;35.83;97180.06;5045741;28;20511;-66
2023/03/08 07:25:01;;;;;;;2.58;1.88;;;23.80;60.30;;;22.22;35.73;97181.22;5047121;28;20037;-67
2023/03/08 07:27:27;;;;;;;8.30;2.65;;;23.80;60.30;;;22.29;36.00;97175.72;5047102;28;20068;-67
2023/03/08 07:29:53;;;;;;;2.70;1.98;;;23.80;60.10;;;22.34;35.69;97161.53;5044187;28;20048;-67
2023/03/08 07:32:19;;;;;;;2.13;1.98;;;23.80;60.20;;;22.38;35.53;97159.56;5045252;28;20049;-66
2023/03/08 07:34:46;;;;;;;3.05;2.75;;;23.80;60.20;;;22.47;35.38;97156.44;5047440;28;20161;-67
2023/03/08 07:37:15;;;;;;;2.13;2.03;;;23.80;60.30;;;22.51;35.28;97166.28;5046624;28;20490;-66
2023/03/08 07:39:41;;;;;;;2.50;2.30;;;23.80;60.20;;;22.60;35.09;97176.97;5045195;28;20136;-66
2023/03/08 07:42:09;;;;;;;3.03;2.25;;;23.80;60.20;;;22.58;35.10;97182.09;5046485;28;20160;-67
2023/03/08 07:44:38;;;;;;;7.10;2.38;;;23.80;60.10;;;22.59;35.10;97183.66;5045938;28;20072;-67
2023/03/08 07:47:07;;;;;;;8.32;2.50;;;23.80;60.20;;;22.63;35.37;97183.69;5046004;28;20056;-67
2023/03/08 07:49:33;;;;;;;2.75;2.35;;;23.80;60.30;;;22.61;35.51;97180.50;5030069;28;20051;-67
2023/03/08 07:51:59;;;;;;;4.05;2.58;;;23.80;60.50;;;22.70;35.46;97198.31;5050557;28;20543;-67
2023/03/08 07:54:25;;;;;;;9.98;2.97;;;23.80;60.50;;;22.81;35.35;97192.78;5050467;28;20049;-67
2023/03/08 07:56:52;;;;;;;3.40;2.67;;;23.80;60.90;;;22.83;35.45;97206.22;5044843;28;20102;-67
2023/03/08 07:59:18;;;;;;;7.80;2.28;;;23.80;60.90;;;22.78;35.45;97209.38;5047681;28;20502;-67
2023/03/08 08:01:46;;;;;;;6.95;2.85;;;23.80;60.90;;;22.74;35.53;97209.34;5044085;28;20139;-67
2023/03/08 08:04:13;;;;;;;5.13;3.03;;;23.80;60.90;;;22.73;35.36;97208.56;5045853;28;20103;-67
2023/03/08 08:06:39;;;;;;;3.78;2.72;;;23.80;60.90;;;22.74;35.36;97210.16;5044244;28;20128;-67
2023/03/08 08:09:06;;;;;;;3.28;2.03;;;23.80;60.70;;;22.70;35.30;97216.88;5046213;28;20123;-67
2023/03/08 08:11:33;;;;;;;8.88;2.88;;;23.80;60.80;;;22.68;35.32;97217.25;5047077;28;20037;-67
2023/03/08 08:14:03;;;;;;;7.38;3.00;;;23.80;60.60;;;22.66;35.29;97222.38;5044395;28;20372;-67
2023/03/08 08:16:29;;;;;;;8.93;3.25;;;23.80;60.60;;;22.69;35.21;97229.09;5043136;28;20408;-67
2023/03/08 08:18:57;;;;;;;2.85;1.98;;;23.80;60.50;;;22.58;35.38;97233.81;5033672;28;20046;-67
2023/03/08 08:21:23;;;;;;;2.15;1.95;;;23.70;60.50;;;22.52;35.36;97225.13;5047989;28;20430;-67
2023/03/08 08:23:49;;;;;;;3.67;2.15;;;23.70;60.40;;;22.53;35.23;97232.22;5044736;28;20045;-67
2023/03/08 08:26:20;;;;;;;3.65;2.30;;;23.70;60.40;;;22.57;35.41;97219.22;5044719;28;20392;-67
2023/03/08 08:28:50;;;;;;;3.88;2.45;;;23.70;60.50;;;22.54;35.19;97211.69;5047609;28;20049;-67
2023/03/08 08:31:19;;;;;;;3.45;2.17;;;23.70;60.50;;;22.58;34.96;97212.50;5045990;28;20041;-67
2023/03/08 08:33:45;;;;;;;3.65;2.13;;;23.70;60.30;;;22.60;35.23;97201.06;5045715;28;20064;-67
2023/03/08 08:36:14;;;;;;;2.63;2.20;;;23.60;60.30;;;22.60;35.17;97206.59;5042357;28;20063;-67
2023/03/08 08:38:42;;;;;;;2.72;2.00;;;23.70;60.40;;;22.63;34.98;97195.53;5047772;28;20051;-67
2023/03/08 08:41:08;;;;;;;4.03;2.47;;;23.70;60.50;;;22.63;35.17;97192.75;5045373;28;20446;-67
2023/03/08 08:43:35;;;;;;;3.08;2.22;;;23.60;60.30;;;22.59;35.28;97203.00;5039726;28;20052;-67
2023/03/08 08:46:02;;;;;;;3.00;2.25;;;23.70;60.30;;;22.58;35.19;97201.44;5045307;28;20407;-67
2023/03/08 08:48:28;;;;;;;5.47;2.05;;;23.70;60.50;;;22.50;35.30;97205.38;5047222;28;20056;-67
2023/03/08 08:50:54;;;;;;;2.85;2.30;;;23.60;60.30;;;22.44;35.26;97210.50;5044636;28;20487;-67
2023/03/08 08:53:20;;;;;;;4.15;2.40;;;23.60;60.20;;;22.48;35.36;97193.91;5045015;28;20130;-67
2023/03/08 08:55:47;;;;;;;2.67;2.42;;;23.60;60.40;;;22.50;35.20;97199.84;5047125;28;20131;-67
2023/03/08 08:58:13;;;;;;;3.72;2.30;;;23.60;60.30;;;22.59;35.12;97197.47;5042179;28;20111;-67
2023/03/08 09:00:39;;;;;;;5.60;1.90;;;23.60;60.20;;;22.61;35.29;97205.38;5043621;28;20053;-67
2023/03/08 09:03:05;;;;;;;3.33;2.53;;;23.60;60.40;;;22.64;35.08;97193.53;5041964;28;20495;-67
2023/03/08 09:05:32;;;;;;;2.63;2.25;;;23.60;60.40;;;22.65;35.10;97190.41;5047305;28;20132;-67
2023/03/08 09:07:59;;;;;;;2.55;2.00;;;23.60;60.40;;;22.65;35.10;97192.38;5041972;28;20053;-67
2023/03/08 09:10:28;;;;;;;2.58;2.22;;;23.60;60.30;;;22.71;35.08;97201.84;5045266;28;20067;-67
2023/03/08 09:12:54;;;;;;;3.42;2.00;;;23.60;60.20;;;22.73;34.91;97203.03;5048112;28;20079;-67
2023/03/08 09:15:21;;;;;;;1.90;1.80;;;23.60;60.30;;;22.73;34.93;97208.56;5048464;28;20570;-67
2023/03/08 09:17:48;;;;;;;3.63;2.40;;;23.60;60.30;;;22.70;34.92;97200.28;5042043;28;20041;-67
2023/03/08 09:20:14;;;;;;;3.13;1.90;;;23.60;60.20;;;22.75;34.87;97197.13;5046165;28;20048;-67
2023/03/08 09:22:41;;;;;;;3.10;2.00;;;23.60;60.10;;;22.71;34.88;97194.34;5046264;28;20049;-67
2023/03/08 09:25:07;;;;;;;3.15;2.17;;;23.60;60.10;;;22.74;34.82;97193.56;5043815;28;20124;-67
2023/03/08 09:27:34;;;;;;;2.72;2.33;;;23.60;60.30;;;22.70;35.02;97190.00;5040869;28;20061;-67
2023/03/08 09:30:00;;;;;;;3.53;1.65;;;23.60;60.20;;;22.75;34.81;97192.38;5046661;28;20641;-67
2023/03/08 09:32:26;;;;;;;1.73;1.63;;;23.60;60.30;;;22.85;34.63;97198.31;5046812;28;20095;-67
2023/03/08 09:34:53;;;;;;;2.20;2.00;;;23.60;60.10;;;22.86;34.64;97195.16;5042659;28;20045;-67
2023/03/08 09:37:19;;;;;;;2.95;2.03;;;23.60;60.10;;;22.86;34.83;97200.69;5044197;28;20041;-67
2023/03/08 09:39:45;;;;;;;1.83;1.45;;;23.70;60.30;;;22.85;34.61;97192.78;5042209;28;20071;-67
2023/03/08 09:42:23;;;;;;;1.73;1.63;;;23.60;60.20;;;22.89;34.63;97210.16;5046636;28;20404;-67
2023/03/08 09:45:23;;;;;;;2.50;1.90;;;23.70;60.40;;;22.87;34.66;97209.75;5043862;28;20499;-67
2023/03/08 09:48:28;;;;;;;2.85;2.17;;;23.70;60.20;;;22.83;34.54;97195.94;5044109;28;20068;-67
2023/03/08 09:50:57;;;;;;;3.80;2.08;;;23.60;60.20;;;22.89;34.64;97191.59;5055409;28;20405;-67
2023/03/08 09:53:27;;;;;;;2.65;2.20;;;23.60;60.10;;;22.93;34.57;97197.13;5041314;28;20123;-67
2023/03/08 09:56:06;;;;;;;2.72;1.90;;;23.70;60.00;;;22.95;34.47;97198.31;5040547;28;20539;-67
2023/03/08 09:58:46;;;;;;;3.50;2.63;;;23.70;60.20;;;22.98;34.41;97199.53;5025733;28;20468;-67
2023/03/08 10:01:27;;;;;;;2.10;2.00;;;23.70;60.20;;;22.93;34.52;97197.13;5010385;28;20045;-67
2023/03/08 10:04:03;;;;;;;1.92;1.73;;;23.70;60.20;;;22.90;34.52;97195.94;5042435;28;20056;-67
2023/03/08 10:07:30;;;;;;;2.65;1.80;;;23.70;60.20;;;22.95;34.55;97189.25;5041748;28;20543;-67
2023/03/08 10:10:11;;;;;;;5.22;1.95;;;23.70;60.30;;;22.92;34.69;97193.59;5041968;28;20064;-67
2023/03/08 10:13:06;;;;;;;2.10;1.90;;;23.70;60.20;;;22.90;34.45;97195.16;5041627;28;20057;-67
2023/03/08 10:15:38;;;;;;;5.75;2.40;;;23.60;60.60;;;22.85;34.66;97190.81;5036903;28;20559;-67
2023/03/08 10:18:29;;;;;;;5.38;2.55;;;23.60;60.10;;;22.88;34.57;97190.03;5041482;28;20552;-67
2023/03/08 10:20:57;;;;;;;2.22;1.70;;;23.60;60.20;;;22.80;34.49;97188.44;5040078;28;20049;-67
2023/03/08 10:23:25;;;;;;;2.13;1.77;;;23.60;60.10;;;22.82;34.58;97188.03;5008198;28;20076;-67
2023/03/08 10:25:51;;;;;;;2.88;1.48;;;23.60;60.10;;;22.82;34.67;97180.56;5042407;28;20048;-67
2023/03/08 10:28:22;;;;;;;3.65;2.20;;;23.60;60.20;;;22.92;34.50;97182.53;5044714;28;20049;-67